Aviation Digital Data Service (ADDS)

Output produced by TAFs form (1740 UTC 21 April 2018)
found at http://aviationweather.gov/adds/tafs/
 
RJGG 211700Z 33003KT 3000 BR NSC 16/16 Q1020 NOSIG
TAF RJGG 211710Z 2118/2300 32006KT 9999 FEW030 
     TEMPO 2118/2121 3000 BR 
     BECMG 2200/2202 16006KT